Time;durP1;ratioP1;P1;durP2;ratioP2;P2;SDS_P1;SDS_P2;PMS_P1;PMS_P2;Temp;Humidity;BMP_temperature;BMP_pressure;BME280_temperature;BME280_humidity;BME280_pressure;Samples;Min_cycle;Max_cycle;Signal;HPM_P1;HPM_P2
2023/09/10 00:00:34;;;;;;;68.07;58.83;;;21.40;99.90;;;;;;5051701;28;20473;-70
2023/09/10 00:03:01;;;;;;;75.53;65.10;;;21.40;99.90;;;;;;5050526;28;20483;-70
2023/09/10 00:05:28;;;;;;;70.70;63.00;;;21.40;99.90;;;;;;5052680;28;21839;-72
2023/09/10 00:07:55;;;;;;;70.97;63.30;;;21.30;99.90;;;;;;5052336;28;20553;-73
2023/09/10 00:10:23;;;;;;;82.77;73.83;;;21.30;99.90;;;;;;5042060;28;20494;-73
2023/09/10 00:12:50;;;;;;;82.80;74.00;;;21.30;99.90;;;;;;5046122;28;20442;-73
2023/09/10 00:15:17;;;;;;;86.17;77.00;;;21.30;99.90;;;;;;5046422;28;20446;-73
2023/09/10 00:17:44;;;;;;;81.17;72.73;;;21.20;99.90;;;;;;5046652;28;21016;-73
2023/09/10 00:20:11;;;;;;;73.73;65.73;;;21.20;99.90;;;;;;5047831;28;20544;-73
2023/09/10 00:22:42;;;;;;;92.37;82.47;;;21.10;99.90;;;;;;5041830;28;20471;-70
2023/09/10 00:25:10;;;;;;;90.77;80.00;;;21.10;99.90;;;;;;5040070;28;20537;-73
2023/09/10 00:27:38;;;;;;;75.50;67.50;;;21.10;99.90;;;;;;5040855;28;20534;-69
2023/09/10 00:30:06;;;;;;;76.43;68.17;;;21.10;99.90;;;;;;5041678;28;20486;-73
2023/09/10 00:32:34;;;;;;;78.87;70.50;;;21.10;99.90;;;;;;5047736;28;20511;-73
2023/09/10 00:35:01;;;;;;;82.43;72.00;;;21.10;99.90;;;;;;5054128;28;20474;-73
2023/09/10 00:37:27;;;;;;;80.73;72.07;;;21.10;99.90;;;;;;5051250;28;20774;-73
2023/09/10 00:39:54;;;;;;;81.13;72.27;;;21.00;99.90;;;;;;5045737;28;20449;-72
2023/09/10 00:42:22;;;;;;;89.27;79.50;;;21.00;99.90;;;;;;5055116;28;21039;-69
2023/09/10 00:44:51;;;;;;;99.00;88.63;;;20.90;99.90;;;;;;5056229;28;20453;-71
2023/09/10 00:47:19;;;;;;;106.83;95.73;;;20.90;99.90;;;;;;5051104;28;20492;-69
2023/09/10 00:49:46;;;;;;;106.37;94.70;;;20.80;99.90;;;;;;5058191;28;20550;-69
2023/09/10 00:52:13;;;;;;;108.33;96.60;;;20.80;99.90;;;;;;5055552;28;20453;-70
2023/09/10 00:54:41;;;;;;;115.43;97.00;;;20.80;99.90;;;;;;5064642;28;20441;-69
2023/09/10 00:57:08;;;;;;;108.20;95.67;;;20.80;99.90;;;;;;5062348;28;20550;-71
2023/09/10 00:59:36;;;;;;;101.00;88.17;;;20.80;99.90;;;;;;5062379;28;20472;-72
2023/09/10 01:02:05;;;;;;;99.83;88.80;;;20.80;99.90;;;;;;5062262;28;20504;-70
2023/09/10 01:04:32;;;;;;;104.57;92.07;;;20.70;99.90;;;;;;5062138;28;20471;-72
2023/09/10 01:06:59;;;;;;;90.13;80.63;;;20.70;99.90;;;;;;5061486;28;20467;-72
2023/09/10 01:09:26;;;;;;;97.23;86.60;;;20.70;99.90;;;;;;5064845;28;20481;-72
2023/09/10 01:11:58;;;;;;;109.07;90.17;;;20.70;99.90;;;;;;5059076;28;20929;-72
2023/09/10 01:14:29;;;;;;;94.93;84.50;;;20.70;99.90;;;;;;5049535;28;20448;-75
2023/09/10 01:17:11;;;;;;;99.53;87.40;;;20.70;99.90;;;;;;5042066;28;20544;-72
2023/09/10 01:19:54;;;;;;;106.87;91.90;;;20.70;99.90;;;;;;5046686;28;20869;-73
2023/09/10 01:22:29;;;;;;;98.40;77.60;;;20.70;99.90;;;;;;5048427;28;20445;-71
2023/09/10 01:24:58;;;;;;;104.70;88.50;;;20.70;99.90;;;;;;5031323;28;20870;-71
2023/09/10 01:27:25;;;;;;;90.63;80.83;;;20.60;99.90;;;;;;5038652;28;20500;-71
2023/09/10 01:29:52;;;;;;;102.63;88.60;;;20.60;99.90;;;;;;5051712;28;21014;-70
2023/09/10 01:32:27;;;;;;;108.83;93.17;;;20.60;99.90;;;;;;5049323;28;20470;-72
2023/09/10 01:35:00;;;;;;;104.80;88.67;;;20.50;99.90;;;;;;5043255;28;20453;-70
2023/09/10 01:37:32;;;;;;;118.07;96.93;;;20.50;99.90;;;;;;5026516;28;20493;-73
2023/09/10 01:40:05;;;;;;;99.17;85.57;;;20.50;99.90;;;;;;5051224;28;20444;-73
2023/09/10 01:42:41;;;;;;;106.23;89.63;;;20.40;99.90;;;;;;5056209;28;20494;-74
2023/09/10 01:45:12;;;;;;;112.60;97.70;;;20.40;99.90;;;;;;5054219;28;20529;-71
2023/09/10 01:47:45;;;;;;;99.57;88.10;;;20.40;99.90;;;;;;5049330;28;20447;-71
2023/09/10 01:50:14;;;;;;;99.20;82.80;;;20.40;99.90;;;;;;5053852;28;20547;-72
2023/09/10 01:52:41;;;;;;;105.93;87.50;;;20.40;99.90;;;;;;5055742;28;20531;-71
2023/09/10 01:55:09;;;;;;;102.87;87.30;;;20.40;99.90;;;;;;5054125;28;20477;-72
2023/09/10 01:57:37;;;;;;;110.93;92.43;;;20.40;99.90;;;;;;5053858;28;20535;-70
2023/09/10 02:00:07;;;;;;;106.87;92.80;;;20.40;99.90;;;;;;5052961;28;20522;-73
2023/09/10 02:02:34;;;;;;;103.20;86.07;;;20.40;99.90;;;;;;5049144;28;20461;-71
2023/09/10 02:05:01;;;;;;;110.27;92.97;;;20.30;99.90;;;;;;5053668;28;20954;-72
2023/09/10 02:07:50;;;;;;;105.67;86.80;;;20.30;99.90;;;;;;5054244;28;20474;-70
2023/09/10 02:10:18;;;;;;;125.77;103.33;;;20.30;99.90;;;;;;5036738;28;20505;-70
2023/09/10 02:13:02;;;;;;;117.37;104.47;;;20.30;99.90;;;;;;5051147;28;20447;-71
2023/09/10 02:15:30;;;;;;;116.67;96.87;;;20.20;99.90;;;;;;5050387;28;20467;-69
2023/09/10 02:17:58;;;;;;;114.77;98.30;;;20.20;99.90;;;;;;5049409;28;20442;-71
2023/09/10 02:20:25;;;;;;;109.13;95.87;;;20.20;99.90;;;;;;5046248;28;20465;-71
2023/09/10 02:22:51;;;;;;;110.67;91.30;;;20.20;99.90;;;;;;5051214;28;20448;-74
2023/09/10 02:25:20;;;;;;;113.40;96.60;;;20.20;99.90;;;;;;5044760;28;20522;-72
2023/09/10 02:27:47;;;;;;;113.40;93.97;;;20.10;99.90;;;;;;5043701;28;20441;-70
2023/09/10 02:30:14;;;;;;;119.80;96.37;;;20.20;99.90;;;;;;5052482;28;20525;-72
2023/09/10 02:32:41;;;;;;;114.43;99.87;;;20.10;99.90;;;;;;5050865;28;20442;-73
2023/09/10 02:35:08;;;;;;;131.93;108.27;;;20.10;99.90;;;;;;5056079;28;20507;-71
2023/09/10 02:37:36;;;;;;;121.77;101.40;;;20.00;99.90;;;;;;5055113;28;20446;-72
2023/09/10 02:40:04;;;;;;;135.40;113.17;;;20.00;99.90;;;;;;5052560;28;20450;-71
2023/09/10 02:42:33;;;;;;;126.70;110.80;;;20.00;99.90;;;;;;5051227;28;20454;-73
2023/09/10 02:45:02;;;;;;;145.30;119.33;;;19.90;99.90;;;;;;5054761;28;20456;-73
2023/09/10 02:47:28;;;;;;;137.90;118.97;;;19.80;99.90;;;;;;5042299;28;20461;-72
2023/09/10 02:49:56;;;;;;;132.93;112.77;;;19.80;99.90;;;;;;5045607;28;20543;-71
2023/09/10 02:52:24;;;;;;;146.57;120.90;;;19.70;99.90;;;;;;5050153;28;20530;-70
2023/09/10 02:54:54;;;;;;;163.30;132.00;;;19.70;99.90;;;;;;5054311;28;20439;-74
2023/09/10 02:57:29;;;;;;;156.13;130.57;;;19.70;99.90;;;;;;5052066;28;20553;-72
2023/09/10 02:59:57;;;;;;;148.50;113.90;;;19.60;99.90;;;;;;5049424;28;20540;-72
2023/09/10 03:02:26;;;;;;;163.73;131.57;;;19.60;99.90;;;;;;5044175;28;20490;-73
2023/09/10 03:04:54;;;;;;;157.37;130.57;;;19.60;99.90;;;;;;5049305;28;20472;-72
2023/09/10 03:07:21;;;;;;;170.60;131.50;;;19.50;99.90;;;;;;5048655;28;20843;-73
2023/09/10 03:09:49;;;;;;;185.30;142.00;;;19.50;99.90;;;;;;5053656;28;20493;-73
2023/09/10 03:12:20;;;;;;;192.90;148.03;;;19.40;99.90;;;;;;5048276;28;20464;-74
2023/09/10 03:14:47;;;;;;;189.63;141.37;;;19.40;99.90;;;;;;5046374;28;20447;-74
2023/09/10 03:17:16;;;;;;;187.27;142.10;;;19.40;99.90;;;;;;5051652;28;20489;-72
2023/09/10 03:19:44;;;;;;;193.90;150.60;;;19.30;99.90;;;;;;5045979;28;20438;-70
2023/09/10 03:22:11;;;;;;;196.70;147.83;;;19.30;99.90;;;;;;5047319;28;20442;-70
2023/09/10 03:24:38;;;;;;;205.23;155.93;;;19.20;99.90;;;;;;5052560;28;20616;-72
2023/09/10 03:27:05;;;;;;;191.40;145.87;;;19.20;99.90;;;;;;5050400;28;21032;-73
2023/09/10 03:29:33;;;;;;;223.37;153.67;;;19.20;99.90;;;;;;5053529;28;20448;-72
2023/09/10 03:32:00;;;;;;;203.17;149.90;;;19.10;99.90;;;;;;5049029;28;20453;-72
2023/09/10 03:34:28;;;;;;;196.40;147.90;;;19.10;99.90;;;;;;5039410;28;20446;-73
2023/09/10 03:36:55;;;;;;;200.50;143.93;;;19.00;99.90;;;;;;5050063;28;20464;-72
2023/09/10 03:39:21;;;;;;;198.43;149.73;;;19.10;99.90;;;;;;5047120;28;20450;-71
2023/09/10 03:41:48;;;;;;;217.73;156.07;;;19.00;99.90;;;;;;5048797;28;20823;-73
2023/09/10 03:44:15;;;;;;;214.17;147.03;;;19.00;99.90;;;;;;5047665;28;20447;-73
2023/09/10 03:46:42;;;;;;;185.40;136.83;;;19.00;99.90;;;;;;5047553;28;20556;-73
2023/09/10 03:49:09;;;;;;;181.83;139.33;;;18.90;99.90;;;;;;5048436;28;20960;-73
2023/09/10 03:51:37;;;;;;;183.53;137.70;;;18.90;99.90;;;;;;5053363;28;20492;-73
2023/09/10 03:54:04;;;;;;;171.70;126.20;;;18.90;99.90;;;;;;5053213;28;20637;-71
2023/09/10 03:56:31;;;;;;;182.60;136.07;;;18.80;99.90;;;;;;5053465;28;20468;-72
2023/09/10 03:58:58;;;;;;;179.80;136.43;;;18.70;99.90;;;;;;5044497;28;20906;-71
2023/09/10 04:01:25;;;;;;;183.70;134.83;;;18.70;99.90;;;;;;5053590;28;20525;-72
2023/09/10 04:03:52;;;;;;;186.23;139.57;;;18.70;99.90;;;;;;5048914;28;20536;-74
2023/09/10 04:06:19;;;;;;;200.83;133.47;;;18.60;99.90;;;;;;5052795;28;20929;-75
2023/09/10 04:08:47;;;;;;;174.43;129.57;;;18.60;99.90;;;;;;5044088;28;20958;-72
2023/09/10 04:11:14;;;;;;;169.33;126.73;;;18.50;99.90;;;;;;5051529;28;20470;-72
2023/09/10 04:13:41;;;;;;;188.70;133.30;;;18.50;99.90;;;;;;5050031;28;20426;-72
2023/09/10 04:16:08;;;;;;;170.47;123.70;;;18.50;99.90;;;;;;5046503;28;20537;-72
2023/09/10 04:18:35;;;;;;;198.70;142.07;;;18.40;99.90;;;;;;5051650;28;20447;-73
2023/09/10 04:21:05;;;;;;;229.67;148.73;;;18.40;99.90;;;;;;5044065;28;20493;-73
2023/09/10 04:23:32;;;;;;;277.10;164.57;;;18.30;99.90;;;;;;5045029;28;20441;-72
2023/09/10 04:26:01;;;;;;;220.27;145.80;;;18.40;99.90;;;;;;5046380;28;20495;-74
2023/09/10 04:28:28;;;;;;;239.90;145.83;;;18.40;99.90;;;;;;5049809;28;20476;-72
2023/09/10 04:30:55;;;;;;;291.23;162.40;;;18.40;99.90;;;;;;5049500;28;20532;-70
2023/09/10 04:33:22;;;;;;;267.67;151.93;;;18.40;99.90;;;;;;5046660;28;20472;-73
2023/09/10 04:35:50;;;;;;;235.93;144.40;;;18.30;99.90;;;;;;5043443;28;21039;-70
2023/09/10 04:38:17;;;;;;;292.43;155.33;;;18.40;99.90;;;;;;5049781;28;20940;-70
2023/09/10 04:40:45;;;;;;;308.67;158.30;;;18.40;99.90;;;;;;5052434;28;20877;-72
2023/09/10 04:43:13;;;;;;;222.90;135.27;;;18.40;99.90;;;;;;5050643;28;20940;-71
2023/09/10 04:45:40;;;;;;;236.23;141.40;;;18.40;99.90;;;;;;5052382;28;20464;-71
2023/09/10 04:48:07;;;;;;;247.43;137.40;;;18.40;99.90;;;;;;5046826;28;20955;-75
2023/09/10 04:50:34;;;;;;;310.77;155.70;;;18.40;99.90;;;;;;5043519;28;20478;-73
2023/09/10 04:53:02;;;;;;;314.00;154.27;;;18.40;99.90;;;;;;5050663;28;20466;-72
2023/09/10 04:55:29;;;;;;;223.33;133.97;;;18.40;99.90;;;;;;5049877;28;20458;-74
2023/09/10 04:57:56;;;;;;;252.07;139.73;;;18.50;99.90;;;;;;5051403;28;20445;-73
2023/09/10 05:00:24;;;;;;;255.93;140.47;;;18.50;99.90;;;;;;5046924;28;20484;-73
2023/09/10 05:02:51;;;;;;;271.00;138.50;;;18.50;99.90;;;;;;5042738;28;20538;-73
2023/09/10 05:05:18;;;;;;;292.60;143.50;;;18.50;99.90;;;;;;5042176;28;20481;-69
2023/09/10 05:07:48;;;;;;;307.27;148.17;;;18.50;99.90;;;;;;5043545;28;20860;-71
2023/09/10 05:10:15;;;;;;;233.13;128.60;;;18.60;99.90;;;;;;5047559;28;20449;-72
2023/09/10 05:12:42;;;;;;;328.60;150.97;;;18.60;99.90;;;;;;5049831;28;21007;-73
2023/09/10 05:15:11;;;;;;;208.17;120.20;;;18.60;99.90;;;;;;5051975;28;20801;-72
2023/09/10 05:17:39;;;;;;;248.40;129.87;;;18.70;99.90;;;;;;5050465;28;20536;-71
2023/09/10 05:20:08;;;;;;;252.40;131.60;;;18.70;99.90;;;;;;5043507;28;20443;-70
2023/09/10 05:22:35;;;;;;;239.27;126.50;;;18.70;99.90;;;;;;5047146;28;20524;-71
2023/09/10 05:25:03;;;;;;;248.10;128.10;;;18.70;99.90;;;;;;5050829;28;20481;-70
2023/09/10 05:27:30;;;;;;;226.87;127.13;;;18.70;99.90;;;;;;5047226;28;20481;-71
2023/09/10 05:29:57;;;;;;;217.33;123.73;;;18.70;99.90;;;;;;5051083;28;20451;-70
2023/09/10 05:32:24;;;;;;;202.53;127.37;;;18.80;99.90;;;;;;5050314;28;20866;-71
2023/09/10 05:34:52;;;;;;;193.50;120.27;;;18.80;99.90;;;;;;5050441;28;20457;-69
2023/09/10 05:37:19;;;;;;;202.77;114.60;;;18.90;99.90;;;;;;5049123;28;20488;-70
2023/09/10 05:39:46;;;;;;;194.53;113.80;;;18.80;99.90;;;;;;5049507;28;20529;-70
2023/09/10 05:42:13;;;;;;;226.63;125.80;;;18.80;99.90;;;;;;5051823;28;20454;-70
2023/09/10 05:44:39;;;;;;;259.30;133.50;;;18.80;99.90;;;;;;5049555;28;20445;-70
2023/09/10 05:47:06;;;;;;;254.53;125.77;;;18.70;99.90;;;;;;5050942;28;20951;-72
2023/09/10 05:49:35;;;;;;;230.97;127.73;;;18.70;99.90;;;;;;5050562;28;20541;-72
2023/09/10 05:52:04;;;;;;;246.40;127.27;;;18.70;99.90;;;;;;5054276;28;20857;-68
2023/09/10 05:54:33;;;;;;;218.67;120.07;;;18.70;99.90;;;;;;5052369;28;20439;-72
2023/09/10 05:57:00;;;;;;;197.13;114.23;;;18.70;99.90;;;;;;5051502;28;20548;-73
2023/09/10 05:59:26;;;;;;;171.27;106.40;;;18.80;99.90;;;;;;5049776;28;20444;-73
2023/09/10 06:01:53;;;;;;;188.23;113.73;;;18.80;99.90;;;;;;5047739;28;20803;-74
2023/09/10 06:04:20;;;;;;;165.70;111.13;;;18.90;99.90;;;;;;5050342;28;20456;-73
2023/09/10 06:06:47;;;;;;;172.03;105.90;;;19.00;99.90;;;;;;5050945;28;20633;-73
2023/09/10 06:09:15;;;;;;;155.97;102.77;;;19.10;99.90;;;;;;5050635;28;20532;-72
2023/09/10 06:11:42;;;;;;;149.70;100.30;;;19.20;99.90;;;;;;5050084;28;20992;-73
2023/09/10 06:14:10;;;;;;;155.70;103.20;;;19.30;99.90;;;;;;5049188;28;20442;-70
2023/09/10 06:16:37;;;;;;;144.87;94.07;;;19.40;99.90;;;;;;5052679;28;20548;-72
2023/09/10 06:19:04;;;;;;;152.20;97.53;;;19.40;99.90;;;;;;5051265;28;20822;-74
2023/09/10 06:21:31;;;;;;;140.70;94.07;;;19.50;99.90;;;;;;5044553;28;20442;-71
2023/09/10 06:23:58;;;;;;;143.80;92.57;;;19.50;99.90;;;;;;5051062;28;20940;-72
2023/09/10 06:26:26;;;;;;;141.47;93.10;;;19.50;99.90;;;;;;5047376;28;20473;-71
2023/09/10 06:28:53;;;;;;;137.90;89.00;;;19.50;99.90;;;;;;5047891;28;20881;-72
2023/09/10 06:31:20;;;;;;;113.23;78.40;;;19.40;99.90;;;;;;5052339;28;20493;-74
2023/09/10 06:33:47;;;;;;;125.47;82.93;;;19.40;99.90;;;;;;5048118;28;20449;-73
2023/09/10 06:36:14;;;;;;;114.40;77.53;;;19.40;99.90;;;;;;5046952;28;20470;-73
2023/09/10 06:38:47;;;;;;;109.17;75.40;;;19.50;99.90;;;;;;5050786;28;20466;-72
2023/09/10 06:41:14;;;;;;;99.03;69.23;;;19.40;99.90;;;;;;5046856;28;20445;-71
2023/09/10 06:43:42;;;;;;;98.37;73.40;;;19.40;99.90;;;;;;5050292;28;20830;-73
2023/09/10 06:46:09;;;;;;;93.60;68.40;;;19.40;99.90;;;;;;5050233;28;20462;-72
2023/09/10 06:48:36;;;;;;;94.30;65.83;;;19.40;99.90;;;;;;5051381;28;20532;-71
2023/09/10 06:51:04;;;;;;;84.03;61.00;;;19.50;99.90;;;;;;5051303;28;20565;-72
2023/09/10 06:53:57;;;;;;;93.03;67.37;;;19.50;99.90;;;;;;5051384;28;20453;-70
2023/09/10 06:56:25;;;;;;;82.23;60.20;;;19.50;99.90;;;;;;5038760;28;20543;-70
2023/09/10 06:58:53;;;;;;;70.47;55.00;;;19.60;99.90;;;;;;5053550;28;20442;-72
2023/09/10 07:01:21;;;;;;;70.53;54.70;;;19.60;99.90;;;;;;5055104;28;20462;-72
2023/09/10 07:03:48;;;;;;;70.80;55.23;;;19.70;99.90;;;;;;5053723;28;20478;-71
2023/09/10 07:06:15;;;;;;;75.77;53.57;;;19.60;99.90;;;;;;5053810;28;20541;-69
2023/09/10 07:08:42;;;;;;;62.77;51.53;;;19.60;99.90;;;;;;5050483;28;20526;-69
2023/09/10 07:11:09;;;;;;;57.43;49.27;;;19.70;99.90;;;;;;5053914;28;20479;-69
2023/09/10 07:13:37;;;;;;;56.87;46.47;;;19.80;99.90;;;;;;5046037;28;20479;-72
2023/09/10 07:16:06;;;;;;;51.23;42.63;;;19.90;99.90;;;;;;5050975;28;20467;-71
2023/09/10 07:18:33;;;;;;;63.10;48.43;;;20.10;99.90;;;;;;5045818;28;20438;-69
2023/09/10 07:21:00;;;;;;;54.67;44.10;;;20.20;99.90;;;;;;5053979;28;20519;-68
2023/09/10 07:23:27;;;;;;;50.00;44.67;;;20.40;99.90;;;;;;5051075;28;20445;-71
2023/09/10 07:25:55;;;;;;;55.13;46.60;;;20.50;99.90;;;;;;5051741;28;20463;-70
2023/09/10 07:28:22;;;;;;;64.40;50.10;;;20.60;99.90;;;;;;5048634;28;20446;-70
2023/09/10 07:30:48;;;;;;;64.67;51.50;;;20.60;99.90;;;;;;5051935;28;20528;-73
2023/09/10 07:33:17;;;;;;;59.37;46.83;;;20.80;99.90;;;;;;5047205;28;20443;-72
2023/09/10 07:35:44;;;;;;;58.07;47.47;;;21.00;99.90;;;;;;5053517;28;20469;-74
2023/09/10 07:38:11;;;;;;;57.57;47.93;;;21.30;99.90;;;;;;5052284;28;20936;-73
2023/09/10 07:40:37;;;;;;;56.40;45.60;;;21.60;99.90;;;;;;5051051;28;20568;-71
2023/09/10 07:43:04;;;;;;;58.93;44.37;;;21.90;99.90;;;;;;5052701;28;20439;-73
2023/09/10 07:45:32;;;;;;;49.00;42.73;;;22.20;99.90;;;;;;5053002;28;20527;-69
2023/09/10 07:47:59;;;;;;;50.30;43.70;;;22.70;99.90;;;;;;5047411;28;20822;-72
2023/09/10 07:50:28;;;;;;;47.03;41.60;;;23.10;99.90;;;;;;5045491;28;20566;-71
2023/09/10 07:52:55;;;;;;;47.40;40.63;;;23.30;99.90;;;;;;5048642;28;20490;-71
2023/09/10 07:55:22;;;;;;;47.73;42.67;;;23.70;99.90;;;;;;5049103;28;20494;-74
2023/09/10 07:57:49;;;;;;;38.33;34.33;;;24.20;99.90;;;;;;5052014;28;20448;-73
2023/09/10 08:00:17;;;;;;;39.93;35.60;;;25.50;99.90;;;;;;5048915;28;20524;-72
2023/09/10 08:02:44;;;;;;;37.03;33.47;;;26.80;99.90;;;;;;5053729;28;20517;-71
2023/09/10 08:05:11;;;;;;;39.03;34.80;;;28.30;99.90;;;;;;5052306;28;20453;-71
2023/09/10 08:07:39;;;;;;;39.70;35.63;;;29.20;99.90;;;;;;5052522;28;20457;-71
2023/09/10 08:10:07;;;;;;;39.70;35.60;;;29.70;96.30;;;;;;5056701;28;20446;-71
2023/09/10 08:12:34;;;;;;;41.10;36.70;;;30.40;94.90;;;;;;5048457;28;20474;-71
2023/09/10 08:15:01;;;;;;;39.67;35.53;;;31.10;92.90;;;;;;5052724;28;20438;-71
2023/09/10 08:17:28;;;;;;;40.77;36.67;;;31.20;92.10;;;;;;5052332;28;20550;-73
2023/09/10 08:19:55;;;;;;;44.23;39.90;;;31.40;91.40;;;;;;5053088;28;20913;-70
2023/09/10 08:22:22;;;;;;;45.10;40.53;;;31.70;90.60;;;;;;5051492;28;20470;-72
2023/09/10 08:24:53;;;;;;;40.40;36.57;;;31.80;90.20;;;;;;5052850;28;20442;-72
2023/09/10 08:27:20;;;;;;;38.57;34.80;;;32.00;90.00;;;;;;5045557;28;20500;-71
2023/09/10 08:29:47;;;;;;;39.77;36.07;;;32.50;88.00;;;;;;5051916;28;20525;-72
2023/09/10 08:32:14;;;;;;;40.33;36.40;;;32.80;87.30;;;;;;5050070;28;20891;-71
2023/09/10 08:34:40;;;;;;;31.23;28.37;;;32.70;86.50;;;;;;5052325;28;20496;-69
2023/09/10 08:37:11;;;;;;;28.83;25.90;;;32.60;86.60;;;;;;5052056;28;20550;-72
2023/09/10 08:39:38;;;;;;;32.67;29.80;;;32.80;86.20;;;;;;5049393;28;20818;-73
2023/09/10 08:42:21;;;;;;;32.83;29.93;;;33.00;85.30;;;;;;5053099;28;20544;-70
2023/09/10 08:44:54;;;;;;;34.37;31.27;;;33.00;84.80;;;;;;5053000;28;20950;-73
2023/09/10 08:47:24;;;;;;;31.23;28.30;;;32.90;84.10;;;;;;5033849;28;20466;-72
2023/09/10 08:49:55;;;;;;;32.40;29.40;;;32.80;84.80;;;;;;5051773;28;20545;-70
2023/09/10 08:52:23;;;;;;;35.13;31.77;;;33.10;84.40;;;;;;5052168;28;20488;-71
2023/09/10 08:54:50;;;;;;;31.77;28.60;;;33.40;83.50;;;;;;5051751;28;20449;-72
2023/09/10 08:57:18;;;;;;;28.83;26.03;;;33.30;83.20;;;;;;5051048;28;20561;-72
2023/09/10 08:59:47;;;;;;;30.63;27.80;;;33.40;83.40;;;;;;5051881;28;20470;-71
2023/09/10 09:02:14;;;;;;;24.73;22.60;;;33.30;83.10;;;;;;5050908;28;20541;-69
2023/09/10 09:04:41;;;;;;;25.07;22.97;;;33.60;82.70;;;;;;5052010;28;20446;-70
2023/09/10 09:07:12;;;;;;;21.83;19.80;;;33.90;81.80;;;;;;5051394;28;20545;-71
2023/09/10 09:09:45;;;;;;;21.97;20.07;;;33.90;81.40;;;;;;5044536;28;20837;-72
2023/09/10 09:12:14;;;;;;;24.93;22.83;;;34.10;81.40;;;;;;5051945;28;20496;-70
2023/09/10 09:14:44;;;;;;;25.70;23.50;;;34.00;80.70;;;;;;5046076;28;20451;-70
2023/09/10 09:17:13;;;;;;;24.10;22.13;;;33.80;80.60;;;;;;5048760;28;20569;-70
2023/09/10 09:19:44;;;;;;;23.00;20.90;;;33.80;80.80;;;;;;5051596;28;20894;-72
2023/09/10 09:22:14;;;;;;;21.80;19.83;;;33.70;82.00;;;;;;5051606;28;20819;-69
2023/09/10 09:24:42;;;;;;;23.10;21.30;;;33.60;81.70;;;;;;5052131;28;20496;-71
2023/09/10 09:27:10;;;;;;;20.80;19.10;;;33.60;81.00;;;;;;5051496;28;20828;-70
2023/09/10 09:29:38;;;;;;;19.80;18.20;;;33.50;82.10;;;;;;5043382;28;20434;-70
2023/09/10 09:32:07;;;;;;;22.43;20.53;;;33.60;81.00;;;;;;5051863;28;20563;-72
2023/09/10 09:34:34;;;;;;;20.07;18.00;;;33.40;81.20;;;;;;5051669;28;20430;-70
2023/09/10 09:37:02;;;;;;;22.80;20.80;;;33.60;81.40;;;;;;5048541;28;20462;-69
2023/09/10 09:39:31;;;;;;;21.20;19.50;;;33.40;81.50;;;;;;5049601;28;20447;-71
2023/09/10 09:41:58;;;;;;;17.50;16.10;;;33.10;81.80;;;;;;5041727;28;20453;-70
2023/09/10 09:44:25;;;;;;;17.90;16.40;;;33.20;82.30;;;;;;5050152;28;20476;-69
2023/09/10 09:46:57;;;;;;;16.60;15.20;;;32.90;81.90;;;;;;5049496;28;21002;-69
2023/09/10 09:49:25;;;;;;;19.10;17.20;;;33.20;81.40;;;;;;5048661;28;20456;-72
2023/09/10 09:51:52;;;;;;;16.07;14.77;;;32.80;82.10;;;;;;5050622;28;20552;-73
2023/09/10 09:54:19;;;;;;;16.83;15.37;;;32.80;83.40;;;;;;5050192;28;20468;-71
2023/09/10 09:56:47;;;;;;;19.50;17.70;;;32.80;82.40;;;;;;5047709;28;20467;-70
2023/09/10 09:59:15;;;;;;;17.10;15.67;;;32.80;81.60;;;;;;5049643;28;20798;-69
2023/09/10 10:01:42;;;;;;;17.13;15.63;;;32.40;82.80;;;;;;5036725;28;20513;-70
2023/09/10 10:04:10;;;;;;;13.90;12.73;;;32.00;84.10;;;;;;5051805;28;20438;-72
2023/09/10 10:06:40;;;;;;;15.83;14.50;;;32.20;84.20;;;;;;5049330;28;20556;-69
2023/09/10 10:09:07;;;;;;;16.70;15.20;;;32.40;83.50;;;;;;5048444;28;20442;-69
2023/09/10 10:11:34;;;;;;;15.10;13.97;;;32.30;82.30;;;;;;5050649;28;20518;-70
2023/09/10 10:14:02;;;;;;;11.47;10.40;;;32.20;82.90;;;;;;5053793;28;20446;-69
2023/09/10 10:16:30;;;;;;;13.50;12.40;;;32.10;83.20;;;;;;5054604;28;20549;-70
2023/09/10 10:18:58;;;;;;;12.20;11.20;;;32.40;82.70;;;;;;5053788;28;20500;-72
2023/09/10 10:21:25;;;;;;;11.03;10.13;;;32.30;83.00;;;;;;5054236;28;20445;-70
2023/09/10 10:23:56;;;;;;;10.90;10.07;;;32.30;82.90;;;;;;5054113;28;20529;-68
2023/09/10 10:26:23;;;;;;;12.80;11.60;;;31.90;82.10;;;;;;5053954;28;20461;-68
2023/09/10 10:28:51;;;;;;;11.73;10.73;;;31.50;83.40;;;;;;5053806;28;20875;-69
2023/09/10 10:31:19;;;;;;;11.80;10.80;;;31.40;84.80;;;;;;5054174;28;20469;-69
2023/09/10 10:33:52;;;;;;;10.53;9.63;;;31.20;85.30;;;;;;5054266;28;20545;-74
2023/09/10 10:36:30;;;;;;;11.10;10.20;;;31.10;86.10;;;;;;5053603;28;20465;-70
2023/09/10 10:39:01;;;;;;;18.13;16.53;;;30.60;86.20;;;;;;5053453;28;20532;-73
2023/09/10 10:41:30;;;;;;;12.40;11.20;;;30.30;88.60;;;;;;5050488;28;20442;-71
2023/09/10 10:44:03;;;;;;;12.80;11.70;;;30.00;88.80;;;;;;5053953;28;20522;-72
2023/09/10 10:46:33;;;;;;;12.17;10.97;;;29.90;89.30;;;;;;5051359;28;20553;-70
2023/09/10 10:49:04;;;;;;;11.23;10.33;;;29.70;90.10;;;;;;5051851;28;20580;-68
2023/09/10 10:51:36;;;;;;;12.50;11.20;;;29.70;90.20;;;;;;5049279;28;20455;-68
2023/09/10 10:54:05;;;;;;;11.80;10.63;;;29.60;90.60;;;;;;5052134;28;20477;-71
2023/09/10 10:56:33;;;;;;;13.77;12.37;;;29.70;90.60;;;;;;5042715;28;20996;-73
2023/09/10 10:59:00;;;;;;;13.53;12.23;;;29.60;90.30;;;;;;5050665;28;20885;-69
2023/09/10 11:01:28;;;;;;;14.20;12.70;;;29.20;90.80;;;;;;5052981;28;20548;-71
2023/09/10 11:03:55;;;;;;;12.33;11.03;;;28.60;91.40;;;;;;5048377;28;20445;-72
2023/09/10 11:06:21;;;;;;;12.80;11.70;;;28.50;92.10;;;;;;5048730;28;20476;-70
2023/09/10 11:08:49;;;;;;;13.43;12.30;;;28.50;92.10;;;;;;5053435;28;20496;-71
2023/09/10 11:11:55;;;;;;;13.50;12.17;;;28.70;91.90;;;;;;5053997;28;20438;-70
2023/09/10 11:14:22;;;;;;;15.23;13.70;;;28.80;91.70;;;;;;4971097;28;20453;-71
2023/09/10 11:17:09;;;;;;;13.10;11.80;;;28.70;91.70;;;;;;4974149;28;20485;-72
2023/09/10 11:19:46;;;;;;;15.70;14.13;;;29.00;91.70;;;;;;5017512;28;20472;-70
2023/09/10 11:22:13;;;;;;;16.83;15.00;;;29.00;91.60;;;;;;5044416;28;20525;-72
2023/09/10 11:24:42;;;;;;;13.30;11.90;;;29.00;91.70;;;;;;5051387;28;20457;-72
2023/09/10 11:27:23;;;;;;;15.23;13.33;;;29.00;91.80;;;;;;5049794;28;20818;-74
2023/09/10 11:30:08;;;;;;;19.47;16.13;;;29.10;91.90;;;;;;5048448;28;20445;-72
2023/09/10 11:32:35;;;;;;;15.70;14.00;;;29.10;91.80;;;;;;5047011;28;20482;-69
2023/09/10 11:35:28;;;;;;;17.40;15.27;;;29.00;92.00;;;;;;5053367;28;20482;-70
2023/09/10 11:37:57;;;;;;;19.30;17.20;;;29.00;92.00;;;;;;5048687;28;20537;-70
2023/09/10 11:40:25;;;;;;;16.23;13.40;;;28.80;91.80;;;;;;5047170;28;20453;-70
2023/09/10 11:42:54;;;;;;;19.97;16.70;;;28.80;92.50;;;;;;5052556;28;20457;-69
2023/09/10 11:45:21;;;;;;;18.60;15.77;;;28.90;92.10;;;;;;5050720;28;20458;-74
2023/09/10 11:47:49;;;;;;;16.87;14.57;;;29.00;91.90;;;;;;5038245;28;20898;-70
2023/09/10 11:50:23;;;;;;;25.27;19.73;;;29.00;92.50;;;;;;5052076;28;21004;-71
2023/09/10 11:52:50;;;;;;;24.50;20.53;;;29.00;92.10;;;;;;5040949;28;20580;-71
2023/09/10 11:55:18;;;;;;;24.93;18.80;;;28.90;92.40;;;;;;5048518;28;20449;-71
2023/09/10 11:57:46;;;;;;;29.20;20.73;;;28.80;92.50;;;;;;5049875;28;20474;-69
2023/09/10 12:00:16;;;;;;;30.47;23.27;;;28.80;92.50;;;;;;5048346;28;20438;-74
2023/09/10 12:02:43;;;;;;;30.03;22.93;;;28.80;92.50;;;;;;5034548;28;20545;-70
2023/09/10 12:05:10;;;;;;;30.87;23.17;;;28.80;92.80;;;;;;5047610;28;20927;-70
2023/09/10 12:07:37;;;;;;;32.43;26.00;;;28.70;92.70;;;;;;5051911;28;20462;-74
2023/09/10 12:10:07;;;;;;;31.20;23.60;;;28.70;92.70;;;;;;5053345;28;20473;-73
2023/09/10 12:12:37;;;;;;;29.77;23.30;;;28.60;93.00;;;;;;5048715;28;20479;-69
2023/09/10 12:15:06;;;;;;;33.30;26.13;;;28.70;92.90;;;;;;5045104;28;20958;-72
2023/09/10 12:17:34;;;;;;;27.63;22.50;;;28.60;92.90;;;;;;5049343;28;20493;-71
2023/09/10 12:20:01;;;;;;;29.47;23.90;;;28.40;93.20;;;;;;5051916;28;20960;-70
2023/09/10 12:22:29;;;;;;;26.30;22.30;;;28.50;93.30;;;;;;5050680;28;20450;-73
2023/09/10 12:24:56;;;;;;;31.40;26.23;;;28.50;93.50;;;;;;5044470;28;20529;-73
2023/09/10 12:27:23;;;;;;;29.53;23.60;;;28.60;93.60;;;;;;5051629;28;20469;-72